Terminal Aerodrome Forecast
Issued by NWS Sioux Falls, SD

Home | Current Version | Previous Version | Graphics & Text | Print | Product List | Glossary On
Versions: 1 2 3 4 5 6 7 8 9 10 11 12 13 14 15
098
FTUS43 KFSD 211138
TAFHON
TAF
KHON 211138Z 2112/2212 17008KT P6SM FEW250 WS012/26035KT
     FM211400 22007KT P6SM FEW250
     FM212000 25011G17KT P6SM FEW250
     FM220030 22008KT P6SM SCT200
     FM220700 25008KT P6SM BKN120=

USA.gov is the U.S. government's official web portal to all federal, state and local government web resources and services.